Time,TemperatureF,DewpointF,PressureIn,WindDirection,WindDirectionDegrees,WindSpeedMPH,WindSpeedGustMPH,Humidity,HourlyPrecipIn,Conditions,Clouds,dailyrainin,SoftwareType,DateUTC
2013-09-13 00:13:00,70.0,69.0,29.91,WSW,245,0.0,-999.0,98,-99.99,,,0.11,,2013-09-13 05:13:00,
2013-09-13 00:22:00,70.0,69.0,29.91,WSW,245,0.0,-999.0,98,-99.99,,,0.11,,2013-09-13 05:22:00,
2013-09-13 00:53:00,70.0,69.0,29.90,WSW,245,0.0,-999.0,98,-99.99,,,0.11,,2013-09-13 05:53:00,
2013-09-13 01:02:00,70.0,69.0,29.90,WSW,245,0.0,-999.0,98,-99.99,,,0.11,,2013-09-13 06:02:00,
2013-09-13 01:12:00,70.0,69.0,29.90,WSW,245,0.0,-999.0,98,-99.99,,,0.11,,2013-09-13 06:12:00,
2013-09-13 01:22:00,70.0,69.0,29.90,WSW,245,0.0,-999.0,98,-99.99,,,0.11,,2013-09-13 06:22:00,
2013-09-13 01:52:00,69.0,69.0,29.89,WSW,245,0.0,-999.0,99,-99.99,,,0.11,,2013-09-13 06:52:00,
2013-09-13 02:11:00,69.0,68.0,29.88,WSW,245,0.0,-999.0,98,-99.99,,,0.11,,2013-09-13 07:11:00,
2013-09-13 02:22:00,69.0,69.0,29.88,WSW,245,0.0,-999.0,99,-99.99,,,0.11,,2013-09-13 07:22:00,
2013-09-13 02:52:00,69.0,69.0,29.88,WSW,245,0.0,-999.0,99,-99.99,,,0.11,,2013-09-13 07:52:00,
2013-09-13 03:11:00,69.0,69.0,29.87,WSW,245,0.0,-999.0,99,-99.99,,,0.11,,2013-09-13 08:11:00,
2013-09-13 03:22:00,68.0,68.0,29.87,WSW,245,0.0,-999.0,99,-99.99,,,0.11,,2013-09-13 08:22:00,
2013-09-13 03:52:00,68.0,68.0,29.87,WSW,245,0.0,-999.0,99,-99.99,,,0.11,,2013-09-13 08:52:00,
2013-09-13 04:12:00,68.0,68.0,29.88,WSW,245,0.0,-999.0,99,-99.99,,,0.11,,2013-09-13 09:12:00,
2013-09-13 04:21:00,68.0,68.0,29.88,WSW,245,0.0,-999.0,99,-99.99,,,0.11,,2013-09-13 09:21:00,
2013-09-13 04:43:00,68.0,68.0,29.88,WSW,245,0.0,-999.0,99,-99.99,,,0.11,,2013-09-13 09:43:00,
2013-09-13 04:54:00,69.0,69.0,29.88,WSW,245,0.0,-999.0,99,-99.99,,,0.11,,2013-09-13 09:54:00,
2013-09-13 05:03:00,69.0,69.0,29.88,WSW,245,0.0,-999.0,99,-99.99,,,0.11,,2013-09-13 10:03:00,
2013-09-13 05:23:00,69.0,69.0,29.88,WSW,245,0.0,-999.0,99,-99.99,,,0.11,,2013-09-13 10:23:00,
2013-09-13 05:33:00,69.0,69.0,29.88,WSW,245,0.0,-999.0,99,-99.99,,,0.11,,2013-09-13 10:33:00,
2013-09-13 05:52:00,69.0,69.0,29.88,WSW,245,0.0,-999.0,99,-99.99,,,0.11,,2013-09-13 10:52:00,
2013-09-13 07:12:00,68.0,68.0,29.90,WSW,245,0.0,-999.0,99,-99.99,,,0.11,,2013-09-13 12:12:00,
2013-09-13 07:22:00,68.0,68.0,29.91,WSW,245,0.0,-999.0,99,-99.99,,,0.11,,2013-09-13 12:22:00,
2013-09-13 07:52:00,70.0,70.0,29.91,NNE,22,0.0,-999.0,100,-99.99,,,0.11,,2013-09-13 12:52:00,
2013-09-13 08:11:00,70.0,70.0,29.91,NNE,22,0.0,-999.0,100,-99.99,,,0.11,,2013-09-13 13:11:00,
2013-09-13 08:21:00,70.0,70.0,29.91,NNE,22,0.0,-999.0,100,-99.99,,,0.11,,2013-09-13 13:21:00,
2013-09-13 08:52:00,71.0,70.0,29.90,NNE,17,0.0,-999.0,96,-99.99,,,0.11,,2013-09-13 13:52:00,
2013-09-13 09:22:00,74.0,71.0,29.91,North,4,0.0,-999.0,90,-99.99,,,0.11,,2013-09-13 14:22:00,
2013-09-13 09:42:00,74.0,70.0,29.91,North,4,1.0,-999.0,87,-99.99,,,0.11,,2013-09-13 14:42:00,
2013-09-13 09:52:00,74.0,70.0,29.90,NW,326,1.0,-999.0,86,-99.99,,,0.11,,2013-09-13 14:52:00,
2013-09-13 10:11:00,75.0,70.0,29.91,NW,307,1.0,-999.0,84,-99.99,,,0.11,,2013-09-13 15:11:00,
2013-09-13 10:22:00,75.0,70.0,29.91,NW,307,1.0,-999.0,84,-99.99,,,0.11,,2013-09-13 15:22:00,
2013-09-13 10:53:00,76.0,67.0,29.90,WNW,301,1.0,-999.0,75,-99.99,,,0.11,,2013-09-13 15:53:00,
2013-09-13 11:12:00,77.0,67.0,29.90,WNW,299,1.0,-999.0,72,-99.99,,,0.11,,2013-09-13 16:12:00,
2013-09-13 11:24:00,77.0,67.0,29.90,WNW,299,1.0,-999.0,72,-99.99,,,0.11,,2013-09-13 16:24:00,
2013-09-13 11:54:00,80.0,62.0,29.89,NNW,345,6.0,-999.0,55,-99.99,,,0.11,,2013-09-13 16:54:00,
2013-09-13 12:24:00,80.0,63.0,29.88,North,354,5.0,-999.0,57,-99.99,,,0.11,,2013-09-13 17:24:00,
2013-09-13 12:53:00,81.0,63.0,29.87,NNW,334,6.0,-999.0,55,-99.99,,,0.11,,2013-09-13 17:53:00,
2013-09-13 13:12:00,81.0,61.0,29.87,North,354,4.0,-999.0,50,-99.99,,,0.11,,2013-09-13 18:12:00,
2013-09-13 13:22:00,81.0,58.0,29.87,NNW,328,5.0,-999.0,46,-99.99,,,0.11,,2013-09-13 18:22:00,
2013-09-13 13:32:00,81.0,58.0,29.87,NNW,328,5.0,-999.0,46,-99.99,,,0.11,,2013-09-13 18:32:00,
2013-09-13 13:42:00,81.0,58.0,29.87,NNW,328,5.0,-999.0,46,-99.99,,,0.11,,2013-09-13 18:42:00,
2013-09-13 13:52:00,82.0,60.0,29.86,NNW,331,6.0,-999.0,47,-99.99,,,0.11,,2013-09-13 18:52:00,
2013-09-13 14:11:00,83.0,61.0,29.86,North,4,5.0,-999.0,47,-99.99,,,0.11,,2013-09-13 19:11:00,
2013-09-13 14:22:00,82.0,59.0,29.85,NNW,331,6.0,-999.0,45,-99.99,,,0.11,,2013-09-13 19:22:00,
2013-09-13 14:43:00,83.0,56.0,29.85,NNW,341,6.0,-999.0,40,-99.99,,,0.11,,2013-09-13 19:43:00,
2013-09-13 14:52:00,83.0,56.0,29.84,WNW,293,5.0,-999.0,40,-99.99,,,0.11,,2013-09-13 19:52:00,
2013-09-13 15:11:00,83.0,58.0,29.84,North,354,6.0,-999.0,42,-99.99,,,0.11,,2013-09-13 20:11:00,
2013-09-13 15:22:00,82.0,57.0,29.84,NNE,23,6.0,-999.0,42,-99.99,,,0.11,,2013-09-13 20:22:00,
2013-09-13 15:52:00,82.0,57.0,29.83,NNW,344,7.0,-999.0,42,-99.99,,,0.11,,2013-09-13 20:52:00,
2013-09-13 16:12:00,82.0,59.0,29.83,North,359,5.0,-999.0,45,-99.99,,,0.11,,2013-09-13 21:12:00,
2013-09-13 16:22:00,82.0,58.0,29.84,NNW,343,7.0,-999.0,44,-99.99,,,0.11,,2013-09-13 21:22:00,
2013-09-13 16:54:00,81.0,56.0,29.84,North,359,7.0,-999.0,43,-99.99,,,0.11,,2013-09-13 21:54:00,
2013-09-13 17:13:00,81.0,58.0,29.83,NNW,348,5.0,-999.0,46,-99.99,,,0.11,,2013-09-13 22:13:00,
2013-09-13 17:24:00,81.0,57.0,29.83,NNE,18,5.0,-999.0,44,-99.99,,,0.11,,2013-09-13 22:24:00,
2013-09-13 17:33:00,81.0,57.0,29.83,NNE,18,5.0,-999.0,44,-99.99,,,0.11,,2013-09-13 22:33:00,
2013-09-13 17:53:00,80.0,57.0,29.84,North,10,5.0,-999.0,46,-99.99,,,0.11,,2013-09-13 22:53:00,
2013-09-13 18:03:00,80.0,57.0,29.84,North,10,5.0,-999.0,46,-99.99,,,0.11,,2013-09-13 23:03:00,
2013-09-13 18:12:00,80.0,57.0,29.84,North,10,5.0,-999.0,46,-99.99,,,0.11,,2013-09-13 23:12:00,
2013-09-13 18:22:00,80.0,57.0,29.84,North,10,5.0,-999.0,46,-99.99,,,0.11,,2013-09-13 23:22:00,
2013-09-13 18:43:00,78.0,54.0,29.84,NNE,19,6.0,-999.0,44,-99.99,,,0.11,,2013-09-13 23:43:00,
2013-09-13 18:53:00,78.0,54.0,29.84,NNE,19,6.0,-999.0,44,-99.99,,,0.11,,2013-09-13 23:53:00,
2013-09-13 19:12:00,76.0,55.0,29.85,NE,36,4.0,-999.0,49,-99.99,,,0.11,,2013-09-14 00:12:00,
2013-09-13 19:22:00,76.0,55.0,29.85,NE,36,4.0,-999.0,49,-99.99,,,0.11,,2013-09-14 00:22:00,
2013-09-13 19:32:00,76.0,55.0,29.85,NE,36,4.0,-999.0,49,-99.99,,,0.11,,2013-09-14 00:32:00,
2013-09-13 20:42:00,71.0,54.0,29.91,North,354,3.0,-999.0,56,-99.99,,,0.00,,2013-09-14 01:42:00,
2013-09-13 20:52:00,71.0,54.0,29.91,North,8,4.0,-999.0,56,-99.99,,,0.00,,2013-09-14 01:52:00,
2013-09-13 21:02:00,71.0,54.0,29.91,North,8,4.0,-999.0,56,-99.99,,,0.00,,2013-09-14 02:02:00,
2013-09-13 21:12:00,71.0,54.0,29.91,North,8,4.0,-999.0,56,-99.99,,,0.00,,2013-09-14 02:12:00,
2013-09-13 21:22:00,70.0,54.0,29.92,North,350,4.0,-999.0,57,-99.99,,,0.00,,2013-09-14 02:22:00,
2013-09-13 21:42:00,70.0,55.0,29.93,North,4,4.0,-999.0,58,-99.99,,,0.00,,2013-09-14 02:42:00,
2013-09-13 21:52:00,70.0,55.0,29.93,North,4,4.0,-999.0,58,-99.99,,,0.00,,2013-09-14 02:52:00,
2013-09-13 22:12:00,69.0,55.0,29.93,NNW,337,4.0,-999.0,60,-99.99,,,0.00,,2013-09-14 03:12:00,
2013-09-13 22:22:00,69.0,55.0,29.93,NNW,337,4.0,-999.0,60,-99.99,,,0.00,,2013-09-14 03:22:00,
2013-09-13 22:55:00,67.0,55.0,29.94,North,4,6.0,-999.0,65,-99.99,,,0.00,,2013-09-14 03:55:00,
2013-09-13 23:14:00,66.0,55.0,29.94,North,350,5.0,-999.0,67,-99.99,,,0.00,,2013-09-14 04:14:00,
2013-09-13 23:24:00,66.0,55.0,29.94,NNE,21,4.0,-999.0,68,-99.99,,,0.00,,2013-09-14 04:24:00,
2013-09-13 23:54:00,66.0,56.0,29.93,NW,311,6.0,-999.0,69,-99.99,,,0.00,,2013-09-14 04:54:00,